sensor_id;sensor_type;location;lat;lon;timestamp;P1;durP1;ratioP1;P2;durP2;ratioP2
71303;SDS011;59091;47.446;19.148;2022-11-14T00:00:07;47.47;;;20.77;;
71303;SDS011;59091;47.446;19.148;2022-11-14T00:02:35;51.53;;;20.30;;
71303;SDS011;59091;47.446;19.148;2022-11-14T00:05:01;51.28;;;21.33;;
71303;SDS011;59091;47.446;19.148;2022-11-14T00:07:29;46.40;;;19.35;;
71303;SDS011;59091;47.446;19.148;2022-11-14T00:09:55;48.92;;;19.58;;
71303;SDS011;59091;47.446;19.148;2022-11-14T00:12:21;42.53;;;18.70;;
71303;SDS011;59091;47.446;19.148;2022-11-14T00:14:46;44.00;;;18.75;;
71303;SDS011;59091;47.446;19.148;2022-11-14T00:17:12;46.95;;;20.00;;
71303;SDS011;59091;47.446;19.148;2022-11-14T00:19:37;42.95;;;19.88;;
71303;SDS011;59091;47.446;19.148;2022-11-14T00:22:02;41.38;;;19.38;;
71303;SDS011;59091;47.446;19.148;2022-11-14T00:24:28;46.13;;;19.25;;
71303;SDS011;59091;47.446;19.148;2022-11-14T00:26:53;43.78;;;19.40;;
71303;SDS011;59091;47.446;19.148;2022-11-14T00:29:18;45.58;;;18.85;;
71303;SDS011;59091;47.446;19.148;2022-11-14T00:31:44;41.45;;;19.35;;
71303;SDS011;59091;47.446;19.148;2022-11-14T00:34:09;43.45;;;18.63;;
71303;SDS011;59091;47.446;19.148;2022-11-14T00:36:35;47.80;;;19.83;;
71303;SDS011;59091;47.446;19.148;2022-11-14T00:39:01;47.97;;;20.60;;
71303;SDS011;59091;47.446;19.148;2022-11-14T00:41:26;43.53;;;19.48;;
71303;SDS011;59091;47.446;19.148;2022-11-14T00:43:52;45.78;;;19.00;;
71303;SDS011;59091;47.446;19.148;2022-11-14T00:46:17;46.15;;;20.20;;
71303;SDS011;59091;47.446;19.148;2022-11-14T00:48:43;48.83;;;18.27;;
71303;SDS011;59091;47.446;19.148;2022-11-14T00:51:08;39.13;;;17.80;;
71303;SDS011;59091;47.446;19.148;2022-11-14T00:53:34;44.95;;;19.25;;
71303;SDS011;59091;47.446;19.148;2022-11-14T00:55:59;49.50;;;19.50;;
71303;SDS011;59091;47.446;19.148;2022-11-14T00:58:25;46.85;;;18.73;;
71303;SDS011;59091;47.446;19.148;2022-11-14T01:00:50;45.38;;;18.92;;
71303;SDS011;59091;47.446;19.148;2022-11-14T01:03:16;44.63;;;19.23;;
71303;SDS011;59091;47.446;19.148;2022-11-14T01:05:43;43.78;;;18.75;;
71303;SDS011;59091;47.446;19.148;2022-11-14T01:08:10;46.63;;;18.48;;
71303;SDS011;59091;47.446;19.148;2022-11-14T01:10:40;42.53;;;19.92;;
71303;SDS011;59091;47.446;19.148;2022-11-14T01:13:06;46.05;;;19.13;;
71303;SDS011;59091;47.446;19.148;2022-11-14T01:15:32;49.10;;;19.75;;
71303;SDS011;59091;47.446;19.148;2022-11-14T01:17:58;42.30;;;19.00;;
71303;SDS011;59091;47.446;19.148;2022-11-14T01:20:23;46.60;;;19.30;;
71303;SDS011;59091;47.446;19.148;2022-11-14T01:22:48;42.50;;;19.52;;
71303;SDS011;59091;47.446;19.148;2022-11-14T01:25:14;52.03;;;19.50;;
71303;SDS011;59091;47.446;19.148;2022-11-14T01:27:39;43.53;;;18.05;;
71303;SDS011;59091;47.446;19.148;2022-11-14T01:30:05;46.72;;;19.55;;
71303;SDS011;59091;47.446;19.148;2022-11-14T01:32:31;42.13;;;18.77;;
71303;SDS011;59091;47.446;19.148;2022-11-14T01:34:56;46.75;;;19.42;;
71303;SDS011;59091;47.446;19.148;2022-11-14T01:37:21;47.13;;;20.08;;
71303;SDS011;59091;47.446;19.148;2022-11-14T01:39:47;44.25;;;18.52;;
71303;SDS011;59091;47.446;19.148;2022-11-14T01:42:12;45.05;;;18.73;;
71303;SDS011;59091;47.446;19.148;2022-11-14T01:47:09;45.08;;;20.27;;
71303;SDS011;59091;47.446;19.148;2022-11-14T01:49:40;43.03;;;19.30;;
71303;SDS011;59091;47.446;19.148;2022-11-14T01:52:09;38.95;;;18.50;;
71303;SDS011;59091;47.446;19.148;2022-11-14T01:54:40;44.80;;;19.20;;
71303;SDS011;59091;47.446;19.148;2022-11-14T01:57:08;41.70;;;19.67;;
71303;SDS011;59091;47.446;19.148;2022-11-14T01:59:37;46.08;;;19.92;;
71303;SDS011;59091;47.446;19.148;2022-11-14T02:02:09;46.60;;;19.00;;
71303;SDS011;59091;47.446;19.148;2022-11-14T02:04:41;47.60;;;19.90;;
71303;SDS011;59091;47.446;19.148;2022-11-14T02:07:10;53.30;;;19.38;;
71303;SDS011;59091;47.446;19.148;2022-11-14T02:09:37;49.10;;;19.27;;
71303;SDS011;59091;47.446;19.148;2022-11-14T02:12:05;49.53;;;20.10;;
71303;SDS011;59091;47.446;19.148;2022-11-14T02:14:32;40.78;;;19.83;;
71303;SDS011;59091;47.446;19.148;2022-11-14T02:16:59;44.70;;;18.40;;
71303;SDS011;59091;47.446;19.148;2022-11-14T02:19:28;44.25;;;19.10;;
71303;SDS011;59091;47.446;19.148;2022-11-14T02:22:24;44.60;;;18.95;;
71303;SDS011;59091;47.446;19.148;2022-11-14T02:24:49;51.83;;;20.92;;
71303;SDS011;59091;47.446;19.148;2022-11-14T02:27:14;47.13;;;19.75;;
71303;SDS011;59091;47.446;19.148;2022-11-14T02:29:40;49.75;;;19.67;;
71303;SDS011;59091;47.446;19.148;2022-11-14T02:32:06;45.15;;;19.45;;
71303;SDS011;59091;47.446;19.148;2022-11-14T02:34:32;45.28;;;19.15;;
71303;SDS011;59091;47.446;19.148;2022-11-14T02:36:57;45.75;;;19.25;;
71303;SDS011;59091;47.446;19.148;2022-11-14T02:39:23;48.72;;;19.02;;
71303;SDS011;59091;47.446;19.148;2022-11-14T02:41:49;39.85;;;18.23;;
71303;SDS011;59091;47.446;19.148;2022-11-14T02:44:15;42.35;;;18.10;;
71303;SDS011;59091;47.446;19.148;2022-11-14T02:46:40;45.65;;;18.58;;
71303;SDS011;59091;47.446;19.148;2022-11-14T02:49:05;42.65;;;18.25;;
71303;SDS011;59091;47.446;19.148;2022-11-14T02:51:31;35.85;;;17.33;;
71303;SDS011;59091;47.446;19.148;2022-11-14T02:53:56;42.67;;;17.92;;
71303;SDS011;59091;47.446;19.148;2022-11-14T02:56:22;38.97;;;17.85;;
71303;SDS011;59091;47.446;19.148;2022-11-14T02:58:47;40.25;;;18.20;;
71303;SDS011;59091;47.446;19.148;2022-11-14T03:01:12;31.27;;;15.85;;
71303;SDS011;59091;47.446;19.148;2022-11-14T03:03:38;39.53;;;17.35;;
71303;SDS011;59091;47.446;19.148;2022-11-14T03:06:03;41.13;;;17.25;;
71303;SDS011;59091;47.446;19.148;2022-11-14T03:08:29;34.20;;;16.48;;
71303;SDS011;59091;47.446;19.148;2022-11-14T03:10:54;37.38;;;16.30;;
71303;SDS011;59091;47.446;19.148;2022-11-14T03:13:20;32.80;;;15.10;;
71303;SDS011;59091;47.446;19.148;2022-11-14T03:15:46;37.90;;;16.17;;
71303;SDS011;59091;47.446;19.148;2022-11-14T03:18:12;39.72;;;16.75;;
71303;SDS011;59091;47.446;19.148;2022-11-14T03:20:37;36.50;;;16.58;;
71303;SDS011;59091;47.446;19.148;2022-11-14T03:23:03;35.78;;;15.60;;
71303;SDS011;59091;47.446;19.148;2022-11-14T03:25:29;34.75;;;15.77;;
71303;SDS011;59091;47.446;19.148;2022-11-14T03:27:55;34.75;;;15.32;;
71303;SDS011;59091;47.446;19.148;2022-11-14T03:30:20;34.30;;;14.77;;
71303;SDS011;59091;47.446;19.148;2022-11-14T03:32:45;35.13;;;14.88;;
71303;SDS011;59091;47.446;19.148;2022-11-14T03:35:11;28.90;;;14.93;;
71303;SDS011;59091;47.446;19.148;2022-11-14T03:37:36;33.03;;;14.82;;
71303;SDS011;59091;47.446;19.148;2022-11-14T03:40:02;28.92;;;14.73;;
71303;SDS011;59091;47.446;19.148;2022-11-14T03:42:27;27.00;;;13.77;;
71303;SDS011;59091;47.446;19.148;2022-11-14T03:44:53;33.50;;;15.40;;
71303;SDS011;59091;47.446;19.148;2022-11-14T03:47:18;28.83;;;15.15;;
71303;SDS011;59091;47.446;19.148;2022-11-14T03:49:43;29.67;;;15.50;;
71303;SDS011;59091;47.446;19.148;2022-11-14T03:52:10;31.00;;;15.43;;
71303;SDS011;59091;47.446;19.148;2022-11-14T03:54:36;33.92;;;15.35;;
71303;SDS011;59091;47.446;19.148;2022-11-14T03:57:01;33.38;;;15.77;;
71303;SDS011;59091;47.446;19.148;2022-11-14T03:59:27;31.95;;;15.35;;
71303;SDS011;59091;47.446;19.148;2022-11-14T04:01:52;29.75;;;15.77;;
71303;SDS011;59091;47.446;19.148;2022-11-14T04:04:18;30.70;;;15.23;;
71303;SDS011;59091;47.446;19.148;2022-11-14T04:06:43;31.05;;;14.90;;
71303;SDS011;59091;47.446;19.148;2022-11-14T04:09:09;35.90;;;15.82;;
71303;SDS011;59091;47.446;19.148;2022-11-14T04:11:35;36.25;;;15.27;;
71303;SDS011;59091;47.446;19.148;2022-11-14T04:14:01;31.55;;;15.25;;
71303;SDS011;59091;47.446;19.148;2022-11-14T04:16:27;27.98;;;14.55;;
71303;SDS011;59091;47.446;19.148;2022-11-14T04:18:52;34.80;;;15.07;;
71303;SDS011;59091;47.446;19.148;2022-11-14T04:21:18;27.58;;;15.05;;
71303;SDS011;59091;47.446;19.148;2022-11-14T04:23:43;30.02;;;14.85;;
71303;SDS011;59091;47.446;19.148;2022-11-14T04:26:08;32.88;;;15.60;;
71303;SDS011;59091;47.446;19.148;2022-11-14T04:28:34;29.35;;;15.15;;
71303;SDS011;59091;47.446;19.148;2022-11-14T04:30:59;30.02;;;14.57;;
71303;SDS011;59091;47.446;19.148;2022-11-14T04:33:25;40.15;;;16.80;;
71303;SDS011;59091;47.446;19.148;2022-11-14T04:35:50;30.05;;;15.90;;
71303;SDS011;59091;47.446;19.148;2022-11-14T04:38:16;34.95;;;15.23;;
71303;SDS011;59091;47.446;19.148;2022-11-14T04:40:47;32.00;;;15.07;;
71303;SDS011;59091;47.446;19.148;2022-11-14T04:43:13;30.88;;;14.05;;
71303;SDS011;59091;47.446;19.148;2022-11-14T04:45:39;30.42;;;15.55;;
71303;SDS011;59091;47.446;19.148;2022-11-14T04:48:04;29.35;;;14.55;;
71303;SDS011;59091;47.446;19.148;2022-11-14T04:50:30;30.67;;;14.90;;
71303;SDS011;59091;47.446;19.148;2022-11-14T04:52:55;31.45;;;15.88;;
71303;SDS011;59091;47.446;19.148;2022-11-14T04:55:20;28.00;;;14.50;;
71303;SDS011;59091;47.446;19.148;2022-11-14T04:57:46;30.58;;;14.98;;
71303;SDS011;59091;47.446;19.148;2022-11-14T05:00:11;28.10;;;14.77;;
71303;SDS011;59091;47.446;19.148;2022-11-14T05:02:37;30.42;;;14.82;;
71303;SDS011;59091;47.446;19.148;2022-11-14T05:05:03;31.52;;;15.07;;
71303;SDS011;59091;47.446;19.148;2022-11-14T05:07:28;29.15;;;15.25;;
71303;SDS011;59091;47.446;19.148;2022-11-14T05:09:54;31.58;;;15.10;;
71303;SDS011;59091;47.446;19.148;2022-11-14T05:12:19;30.60;;;15.30;;
71303;SDS011;59091;47.446;19.148;2022-11-14T05:14:44;28.58;;;14.63;;
71303;SDS011;59091;47.446;19.148;2022-11-14T05:17:10;31.75;;;16.30;;
71303;SDS011;59091;47.446;19.148;2022-11-14T05:19:35;27.13;;;14.02;;
71303;SDS011;59091;47.446;19.148;2022-11-14T05:22:00;31.40;;;15.32;;
71303;SDS011;59091;47.446;19.148;2022-11-14T05:24:26;35.63;;;15.43;;
71303;SDS011;59091;47.446;19.148;2022-11-14T05:26:52;29.75;;;15.13;;
71303;SDS011;59091;47.446;19.148;2022-11-14T05:29:18;32.38;;;16.15;;
71303;SDS011;59091;47.446;19.148;2022-11-14T05:31:43;29.70;;;15.73;;
71303;SDS011;59091;47.446;19.148;2022-11-14T05:34:08;30.90;;;15.32;;
71303;SDS011;59091;47.446;19.148;2022-11-14T05:36:34;29.08;;;14.35;;
71303;SDS011;59091;47.446;19.148;2022-11-14T05:38:59;30.95;;;15.38;;
71303;SDS011;59091;47.446;19.148;2022-11-14T05:41:25;36.53;;;15.73;;
71303;SDS011;59091;47.446;19.148;2022-11-14T05:43:50;33.35;;;15.15;;
71303;SDS011;59091;47.446;19.148;2022-11-14T05:46:15;34.35;;;16.70;;
71303;SDS011;59091;47.446;19.148;2022-11-14T05:48:41;30.42;;;15.25;;
71303;SDS011;59091;47.446;19.148;2022-11-14T05:51:09;29.60;;;14.98;;
71303;SDS011;59091;47.446;19.148;2022-11-14T05:53:36;28.75;;;14.73;;
71303;SDS011;59091;47.446;19.148;2022-11-14T05:56:02;29.98;;;15.30;;
71303;SDS011;59091;47.446;19.148;2022-11-14T05:58:29;30.73;;;15.35;;
71303;SDS011;59091;47.446;19.148;2022-11-14T06:01:08;28.80;;;15.30;;
71303;SDS011;59091;47.446;19.148;2022-11-14T06:03:36;36.00;;;14.40;;
71303;SDS011;59091;47.446;19.148;2022-11-14T06:06:04;28.35;;;14.07;;
71303;SDS011;59091;47.446;19.148;2022-11-14T06:08:31;31.85;;;14.65;;
71303;SDS011;59091;47.446;19.148;2022-11-14T06:11:00;34.28;;;14.70;;
71303;SDS011;59091;47.446;19.148;2022-11-14T06:16:03;32.85;;;13.95;;
71303;SDS011;59091;47.446;19.148;2022-11-14T06:18:40;33.78;;;15.05;;
71303;SDS011;59091;47.446;19.148;2022-11-14T06:21:07;28.63;;;14.45;;
71303;SDS011;59091;47.446;19.148;2022-11-14T06:23:36;38.97;;;15.95;;
71303;SDS011;59091;47.446;19.148;2022-11-14T06:26:02;28.40;;;14.63;;
71303;SDS011;59091;47.446;19.148;2022-11-14T06:28:29;31.85;;;15.75;;
71303;SDS011;59091;47.446;19.148;2022-11-14T06:30:58;31.25;;;15.02;;
71303;SDS011;59091;47.446;19.148;2022-11-14T06:33:26;34.53;;;14.90;;
71303;SDS011;59091;47.446;19.148;2022-11-14T06:35:58;29.77;;;14.73;;
71303;SDS011;59091;47.446;19.148;2022-11-14T06:38:26;34.45;;;15.68;;
71303;SDS011;59091;47.446;19.148;2022-11-14T06:40:52;32.72;;;15.70;;
71303;SDS011;59091;47.446;19.148;2022-11-14T06:43:17;33.05;;;15.65;;
71303;SDS011;59091;47.446;19.148;2022-11-14T06:45:42;31.52;;;15.57;;
71303;SDS011;59091;47.446;19.148;2022-11-14T06:48:08;33.45;;;15.10;;
71303;SDS011;59091;47.446;19.148;2022-11-14T06:50:33;27.40;;;14.45;;
71303;SDS011;59091;47.446;19.148;2022-11-14T06:52:58;29.58;;;13.95;;
71303;SDS011;59091;47.446;19.148;2022-11-14T06:55:24;27.00;;;13.85;;
71303;SDS011;59091;47.446;19.148;2022-11-14T06:57:53;25.25;;;13.50;;
71303;SDS011;59091;47.446;19.148;2022-11-14T07:00:19;25.50;;;13.60;;
71303;SDS011;59091;47.446;19.148;2022-11-14T07:02:46;24.08;;;13.82;;
71303;SDS011;59091;47.446;19.148;2022-11-14T07:05:12;26.30;;;13.25;;
71303;SDS011;59091;47.446;19.148;2022-11-14T07:07:37;22.38;;;12.68;;
71303;SDS011;59091;47.446;19.148;2022-11-14T07:10:02;23.75;;;13.48;;
71303;SDS011;59091;47.446;19.148;2022-11-14T07:12:28;22.77;;;12.52;;
71303;SDS011;59091;47.446;19.148;2022-11-14T07:14:53;25.10;;;13.23;;
71303;SDS011;59091;47.446;19.148;2022-11-14T07:17:19;27.33;;;13.55;;
71303;SDS011;59091;47.446;19.148;2022-11-14T07:19:44;22.60;;;13.20;;
71303;SDS011;59091;47.446;19.148;2022-11-14T07:22:10;29.33;;;12.60;;
71303;SDS011;59091;47.446;19.148;2022-11-14T07:24:35;25.00;;;13.27;;
71303;SDS011;59091;47.446;19.148;2022-11-14T07:27:01;27.17;;;13.50;;
71303;SDS011;59091;47.446;19.148;2022-11-14T07:29:26;30.52;;;14.00;;
71303;SDS011;59091;47.446;19.148;2022-11-14T07:31:52;23.77;;;13.60;;
71303;SDS011;59091;47.446;19.148;2022-11-14T07:34:17;25.95;;;14.23;;
71303;SDS011;59091;47.446;19.148;2022-11-14T07:36:43;25.60;;;13.32;;
71303;SDS011;59091;47.446;19.148;2022-11-14T07:39:08;28.40;;;15.15;;
71303;SDS011;59091;47.446;19.148;2022-11-14T07:41:34;27.33;;;14.88;;
71303;SDS011;59091;47.446;19.148;2022-11-14T07:43:59;25.48;;;13.75;;
71303;SDS011;59091;47.446;19.148;2022-11-14T07:46:25;28.73;;;14.70;;
71303;SDS011;59091;47.446;19.148;2022-11-14T07:48:50;31.42;;;14.95;;
71303;SDS011;59091;47.446;19.148;2022-11-14T07:51:16;29.27;;;14.23;;
71303;SDS011;59091;47.446;19.148;2022-11-14T07:53:43;29.35;;;14.93;;
71303;SDS011;59091;47.446;19.148;2022-11-14T07:56:09;24.02;;;13.65;;
71303;SDS011;59091;47.446;19.148;2022-11-14T07:58:35;30.80;;;14.60;;
71303;SDS011;59091;47.446;19.148;2022-11-14T08:01:02;31.38;;;14.25;;
71303;SDS011;59091;47.446;19.148;2022-11-14T08:03:28;31.20;;;14.35;;
71303;SDS011;59091;47.446;19.148;2022-11-14T08:06:04;30.23;;;15.13;;
71303;SDS011;59091;47.446;19.148;2022-11-14T08:08:31;28.27;;;15.00;;
71303;SDS011;59091;47.446;19.148;2022-11-14T08:10:57;29.50;;;15.10;;
71303;SDS011;59091;47.446;19.148;2022-11-14T08:13:23;28.48;;;14.70;;
71303;SDS011;59091;47.446;19.148;2022-11-14T08:15:49;31.30;;;16.08;;
71303;SDS011;59091;47.446;19.148;2022-11-14T08:18:15;32.58;;;15.35;;
71303;SDS011;59091;47.446;19.148;2022-11-14T08:20:41;32.03;;;15.70;;
71303;SDS011;59091;47.446;19.148;2022-11-14T08:23:06;32.03;;;15.75;;
71303;SDS011;59091;47.446;19.148;2022-11-14T08:25:32;30.42;;;15.80;;
71303;SDS011;59091;47.446;19.148;2022-11-14T08:27:57;33.63;;;16.35;;
71303;SDS011;59091;47.446;19.148;2022-11-14T08:30:23;32.88;;;15.65;;
71303;SDS011;59091;47.446;19.148;2022-11-14T08:32:49;33.13;;;15.95;;
71303;SDS011;59091;47.446;19.148;2022-11-14T08:35:14;34.50;;;17.55;;
71303;SDS011;59091;47.446;19.148;2022-11-14T08:37:40;34.95;;;17.17;;
71303;SDS011;59091;47.446;19.148;2022-11-14T08:40:05;33.70;;;17.15;;
71303;SDS011;59091;47.446;19.148;2022-11-14T08:42:31;29.52;;;15.85;;
71303;SDS011;59091;47.446;19.148;2022-11-14T08:44:57;33.53;;;16.73;;
71303;SDS011;59091;47.446;19.148;2022-11-14T08:47:22;37.42;;;18.65;;
71303;SDS011;59091;47.446;19.148;2022-11-14T08:49:47;35.97;;;18.83;;
71303;SDS011;59091;47.446;19.148;2022-11-14T08:52:13;37.42;;;18.85;;
71303;SDS011;59091;47.446;19.148;2022-11-14T08:54:38;37.40;;;18.25;;
71303;SDS011;59091;47.446;19.148;2022-11-14T08:57:04;31.30;;;17.50;;
71303;SDS011;59091;47.446;19.148;2022-11-14T08:59:30;37.13;;;17.80;;
71303;SDS011;59091;47.446;19.148;2022-11-14T09:01:56;36.45;;;19.08;;
71303;SDS011;59091;47.446;19.148;2022-11-14T09:04:22;37.17;;;18.52;;
71303;SDS011;59091;47.446;19.148;2022-11-14T09:06:47;34.03;;;18.13;;
71303;SDS011;59091;47.446;19.148;2022-11-14T09:09:14;38.50;;;18.30;;
71303;SDS011;59091;47.446;19.148;2022-11-14T09:11:39;34.67;;;18.80;;
71303;SDS011;59091;47.446;19.148;2022-11-14T09:14:05;34.55;;;18.58;;
71303;SDS011;59091;47.446;19.148;2022-11-14T09:16:30;31.52;;;17.92;;
71303;SDS011;59091;47.446;19.148;2022-11-14T09:18:57;33.60;;;18.02;;
71303;SDS011;59091;47.446;19.148;2022-11-14T09:21:23;31.50;;;18.25;;
71303;SDS011;59091;47.446;19.148;2022-11-14T09:23:48;33.78;;;18.17;;
71303;SDS011;59091;47.446;19.148;2022-11-14T09:26:13;30.80;;;16.83;;
71303;SDS011;59091;47.446;19.148;2022-11-14T09:28:39;31.60;;;17.83;;
71303;SDS011;59091;47.446;19.148;2022-11-14T09:31:06;29.58;;;17.05;;
71303;SDS011;59091;47.446;19.148;2022-11-14T09:33:33;34.50;;;18.80;;
71303;SDS011;59091;47.446;19.148;2022-11-14T09:36:00;30.45;;;17.70;;
71303;SDS011;59091;47.446;19.148;2022-11-14T09:38:27;38.55;;;18.83;;
71303;SDS011;59091;47.446;19.148;2022-11-14T09:46:24;39.78;;;19.17;;
71303;SDS011;59091;47.446;19.148;2022-11-14T09:48:55;32.42;;;18.90;;
71303;SDS011;59091;47.446;19.148;2022-11-14T09:51:21;36.88;;;18.23;;
71303;SDS011;59091;47.446;19.148;2022-11-14T09:56:19;31.55;;;17.42;;
71303;SDS011;59091;47.446;19.148;2022-11-14T09:58:48;35.38;;;18.83;;
71303;SDS011;59091;47.446;19.148;2022-11-14T10:06:40;32.35;;;18.58;;
71303;SDS011;59091;47.446;19.148;2022-11-14T10:09:28;38.15;;;20.23;;
71303;SDS011;59091;47.446;19.148;2022-11-14T10:19:48;35.25;;;19.27;;
71303;SDS011;59091;47.446;19.148;2022-11-14T10:37:05;37.13;;;19.33;;
71303;SDS011;59091;47.446;19.148;2022-11-14T10:39:41;33.78;;;18.40;;
71303;SDS011;59091;47.446;19.148;2022-11-14T10:42:13;35.08;;;19.23;;
71303;SDS011;59091;47.446;19.148;2022-11-14T10:44:50;38.20;;;19.85;;
71303;SDS011;59091;47.446;19.148;2022-11-14T10:47:22;33.90;;;18.85;;
71303;SDS011;59091;47.446;19.148;2022-11-14T10:49:50;32.63;;;17.27;;
71303;SDS011;59091;47.446;19.148;2022-11-14T10:52:19;25.38;;;15.98;;
71303;SDS011;59091;47.446;19.148;2022-11-14T10:54:52;24.75;;;14.50;;
71303;SDS011;59091;47.446;19.148;2022-11-14T10:57:24;30.02;;;14.82;;
71303;SDS011;59091;47.446;19.148;2022-11-14T10:59:49;28.08;;;15.50;;
71303;SDS011;59091;47.446;19.148;2022-11-14T11:02:17;25.38;;;14.60;;
71303;SDS011;59091;47.446;19.148;2022-11-14T11:04:43;24.65;;;14.65;;
71303;SDS011;59091;47.446;19.148;2022-11-14T11:09:58;27.70;;;14.88;;
71303;SDS011;59091;47.446;19.148;2022-11-14T11:12:52;24.27;;;14.75;;
71303;SDS011;59091;47.446;19.148;2022-11-14T11:15:25;23.83;;;14.73;;
71303;SDS011;59091;47.446;19.148;2022-11-14T11:18:03;24.60;;;13.57;;
71303;SDS011;59091;47.446;19.148;2022-11-14T11:20:38;25.48;;;14.88;;
71303;SDS011;59091;47.446;19.148;2022-11-14T11:25:33;26.67;;;14.80;;
71303;SDS011;59091;47.446;19.148;2022-11-14T11:28:18;34.70;;;15.13;;
71303;SDS011;59091;47.446;19.148;2022-11-14T11:35:58;27.50;;;15.10;;
71303;SDS011;59091;47.446;19.148;2022-11-14T11:38:26;26.23;;;15.55;;
71303;SDS011;59091;47.446;19.148;2022-11-14T11:40:58;25.80;;;15.40;;
71303;SDS011;59091;47.446;19.148;2022-11-14T11:43:36;25.77;;;14.85;;
71303;SDS011;59091;47.446;19.148;2022-11-14T11:46:14;24.63;;;14.55;;
71303;SDS011;59091;47.446;19.148;2022-11-14T11:48:43;22.38;;;14.38;;
71303;SDS011;59091;47.446;19.148;2022-11-14T11:51:15;25.42;;;13.45;;
71303;SDS011;59091;47.446;19.148;2022-11-14T11:53:54;23.40;;;14.13;;
71303;SDS011;59091;47.446;19.148;2022-11-14T11:56:24;23.15;;;13.45;;
71303;SDS011;59091;47.446;19.148;2022-11-14T11:58:56;20.38;;;12.68;;
71303;SDS011;59091;47.446;19.148;2022-11-14T12:01:29;23.35;;;13.98;;
71303;SDS011;59091;47.446;19.148;2022-11-14T12:03:54;25.65;;;14.15;;
71303;SDS011;59091;47.446;19.148;2022-11-14T12:06:21;22.88;;;12.90;;
71303;SDS011;59091;47.446;19.148;2022-11-14T12:09:13;23.70;;;13.30;;
71303;SDS011;59091;47.446;19.148;2022-11-14T12:11:56;21.60;;;12.90;;
71303;SDS011;59091;47.446;19.148;2022-11-14T12:14:34;23.10;;;13.55;;
71303;SDS011;59091;47.446;19.148;2022-11-14T12:31:41;25.65;;;14.43;;
71303;SDS011;59091;47.446;19.148;2022-11-14T12:34:17;21.55;;;12.93;;
71303;SDS011;59091;47.446;19.148;2022-11-14T12:36:50;22.60;;;13.05;;
71303;SDS011;59091;47.446;19.148;2022-11-14T12:39:25;21.58;;;13.65;;
71303;SDS011;59091;47.446;19.148;2022-11-14T12:42:05;22.02;;;12.70;;
71303;SDS011;59091;47.446;19.148;2022-11-14T12:44:38;26.77;;;12.75;;
71303;SDS011;59091;47.446;19.148;2022-11-14T12:55:18;22.20;;;13.07;;
71303;SDS011;59091;47.446;19.148;2022-11-14T13:11:53;23.75;;;13.07;;
71303;SDS011;59091;47.446;19.148;2022-11-14T13:14:53;25.65;;;13.95;;
71303;SDS011;59091;47.446;19.148;2022-11-14T13:17:39;21.45;;;12.52;;
71303;SDS011;59091;47.446;19.148;2022-11-14T13:20:30;26.08;;;13.98;;
71303;SDS011;59091;47.446;19.148;2022-11-14T13:33:41;18.48;;;11.68;;
71303;SDS011;59091;47.446;19.148;2022-11-14T13:36:09;24.77;;;12.93;;
71303;SDS011;59091;47.446;19.148;2022-11-14T13:47:13;23.98;;;13.13;;
71303;SDS011;59091;47.446;19.148;2022-11-14T13:52:16;25.77;;;13.75;;
71303;SDS011;59091;47.446;19.148;2022-11-14T13:54:46;27.40;;;14.88;;
71303;SDS011;59091;47.446;19.148;2022-11-14T14:00:10;29.10;;;13.50;;
71303;SDS011;59091;47.446;19.148;2022-11-14T14:05:47;25.95;;;13.10;;
71303;SDS011;59091;47.446;19.148;2022-11-14T14:11:32;21.95;;;13.55;;
71303;SDS011;59091;47.446;19.148;2022-11-14T14:14:20;23.10;;;13.20;;
71303;SDS011;59091;47.446;19.148;2022-11-14T14:17:31;22.73;;;14.05;;
71303;SDS011;59091;47.446;19.148;2022-11-14T14:20:28;26.45;;;14.20;;
71303;SDS011;59091;47.446;19.148;2022-11-14T14:25:53;24.60;;;13.90;;
71303;SDS011;59091;47.446;19.148;2022-11-14T14:31:31;28.50;;;14.35;;
71303;SDS011;59091;47.446;19.148;2022-11-14T14:34:02;27.02;;;14.68;;
71303;SDS011;59091;47.446;19.148;2022-11-14T14:36:56;25.17;;;14.43;;
71303;SDS011;59091;47.446;19.148;2022-11-14T14:39:23;27.50;;;13.88;;
71303;SDS011;59091;47.446;19.148;2022-11-14T14:41:51;28.60;;;15.60;;
71303;SDS011;59091;47.446;19.148;2022-11-14T14:46:46;25.60;;;14.63;;
71303;SDS011;59091;47.446;19.148;2022-11-14T14:49:15;24.45;;;14.10;;
71303;SDS011;59091;47.446;19.148;2022-11-14T14:51:46;24.17;;;13.70;;
71303;SDS011;59091;47.446;19.148;2022-11-14T14:54:22;32.55;;;15.35;;
71303;SDS011;59091;47.446;19.148;2022-11-14T14:56:53;27.50;;;14.50;;
71303;SDS011;59091;47.446;19.148;2022-11-14T14:59:27;28.60;;;14.90;;
71303;SDS011;59091;47.446;19.148;2022-11-14T15:01:55;27.88;;;13.65;;
71303;SDS011;59091;47.446;19.148;2022-11-14T15:04:27;26.80;;;14.93;;
71303;SDS011;59091;47.446;19.148;2022-11-14T15:06:54;21.83;;;13.85;;
71303;SDS011;59091;47.446;19.148;2022-11-14T15:09:22;23.23;;;13.75;;
71303;SDS011;59091;47.446;19.148;2022-11-14T15:11:50;25.23;;;13.85;;
71303;SDS011;59091;47.446;19.148;2022-11-14T15:14:24;23.95;;;13.57;;
71303;SDS011;59091;47.446;19.148;2022-11-14T15:16:53;25.80;;;13.48;;
71303;SDS011;59091;47.446;19.148;2022-11-14T15:19:20;27.83;;;14.10;;
71303;SDS011;59091;47.446;19.148;2022-11-14T15:22:01;25.15;;;14.27;;
71303;SDS011;59091;47.446;19.148;2022-11-14T15:24:27;24.80;;;14.43;;
71303;SDS011;59091;47.446;19.148;2022-11-14T15:26:52;28.83;;;14.48;;
71303;SDS011;59091;47.446;19.148;2022-11-14T15:29:19;24.92;;;14.15;;
71303;SDS011;59091;47.446;19.148;2022-11-14T15:34:30;31.00;;;16.15;;
71303;SDS011;59091;47.446;19.148;2022-11-14T15:39:34;30.95;;;16.10;;
71303;SDS011;59091;47.446;19.148;2022-11-14T15:44:55;38.80;;;20.23;;
71303;SDS011;59091;47.446;19.148;2022-11-14T15:49:58;42.58;;;22.77;;
71303;SDS011;59091;47.446;19.148;2022-11-14T15:52:25;46.78;;;22.70;;
71303;SDS011;59091;47.446;19.148;2022-11-14T15:55:15;46.38;;;22.15;;
71303;SDS011;59091;47.446;19.148;2022-11-14T15:57:42;39.05;;;22.10;;
71303;SDS011;59091;47.446;19.148;2022-11-14T16:00:11;40.47;;;21.48;;
71303;SDS011;59091;47.446;19.148;2022-11-14T16:02:40;35.38;;;20.42;;
71303;SDS011;59091;47.446;19.148;2022-11-14T16:05:12;36.58;;;20.15;;
71303;SDS011;59091;47.446;19.148;2022-11-14T16:07:40;36.55;;;19.95;;
71303;SDS011;59091;47.446;19.148;2022-11-14T16:10:16;36.20;;;18.30;;
71303;SDS011;59091;47.446;19.148;2022-11-14T16:12:43;34.55;;;19.20;;
71303;SDS011;59091;47.446;19.148;2022-11-14T16:15:08;38.75;;;18.75;;
71303;SDS011;59091;47.446;19.148;2022-11-14T16:17:38;35.63;;;20.30;;
71303;SDS011;59091;47.446;19.148;2022-11-14T16:20:06;40.75;;;19.95;;
71303;SDS011;59091;47.446;19.148;2022-11-14T16:22:39;38.95;;;21.10;;
71303;SDS011;59091;47.446;19.148;2022-11-14T16:25:05;43.40;;;23.85;;
71303;SDS011;59091;47.446;19.148;2022-11-14T16:27:35;45.20;;;24.75;;
71303;SDS011;59091;47.446;19.148;2022-11-14T16:30:00;45.65;;;23.50;;
71303;SDS011;59091;47.446;19.148;2022-11-14T16:32:25;47.17;;;23.90;;